Time;durP1;ratioP1;P1;durP2;ratioP2;P2;SDS_P1;SDS_P2;PMS_P1;PMS_P2;Temp;Humidity;BMP_temperature;BMP_pressure;BME280_temperature;BME280_humidity;BME280_pressure;Samples;Min_cycle;Max_cycle;Signal;HPM_P1;HPM_P2
2022/11/02 00:01:25;;;;;;;0.95;0.95;;;;;;;13.49;77.94;99791.75;4334087;33;34909;-71
2022/11/02 00:03:53;;;;;;;1.58;1.48;;;;;;;13.49;77.51;99798.72;4320904;33;34579;-75
2022/11/02 00:06:21;;;;;;;1.40;0.98;;;;;;;13.39;76.95;99800.59;4333935;33;33546;-71
2022/11/02 00:08:49;;;;;;;4.25;2.78;;;;;;;13.54;76.41;99799.53;4333797;33;34729;-71
2022/11/02 00:11:17;;;;;;;1.75;1.55;;;;;;;13.25;77.43;99798.16;4333858;33;35127;-78
2022/11/02 00:13:45;;;;;;;1.42;1.33;;;;;;;13.16;78.41;99803.53;4334013;33;34451;-78
2022/11/02 00:16:14;;;;;;;1.37;1.27;;;;;;;13.24;77.29;99799.06;4333836;33;33673;-74
2022/11/02 00:18:45;;;;;;;0.70;0.70;;;;;;;12.77;80.01;99803.16;4333871;33;33834;-78
2022/11/02 00:21:15;;;;;;;0.88;0.88;;;;;;;13.32;77.35;99807.69;4333248;33;34800;-73
2022/11/02 00:23:44;;;;;;;1.73;1.62;;;;;;;13.25;77.16;99792.94;4320802;33;33479;-71
2022/11/02 00:26:12;;;;;;;1.65;1.55;;;;;;;13.22;77.57;99800.84;4320594;33;33704;-71
2022/11/02 00:28:41;;;;;;;2.70;1.90;;;;;;;13.15;78.27;99810.50;4320509;33;34036;-70
2022/11/02 00:31:09;;;;;;;2.20;1.60;;;;;;;13.11;78.37;99811.41;4333680;33;35050;-70
2022/11/02 00:33:37;;;;;;;6.10;3.12;;;;;;;13.64;76.52;99799.34;4333822;33;34384;-70
2022/11/02 00:36:05;;;;;;;1.48;1.05;;;;;;;13.58;76.19;99807.28;4333821;33;33698;-78
2022/11/02 00:38:34;;;;;;;2.62;2.45;;;;;;;13.49;76.87;99817.06;4320585;33;34041;-76
2022/11/02 00:41:01;;;;;;;0.57;0.57;;;;;;;13.06;78.03;99802.81;4333680;33;35861;-70
2022/11/02 00:43:29;;;;;;;2.20;1.75;;;;;;;13.42;77.12;99801.44;4333606;33;34522;-78
2022/11/02 00:45:58;;;;;;;1.45;1.35;;;;;;;13.52;76.26;99796.06;4333685;33;33613;-70
2022/11/02 00:48:26;;;;;;;1.48;1.37;;;;;;;13.52;76.01;99798.66;4333662;33;33904;-70
2022/11/02 00:50:54;;;;;;;1.17;1.15;;;;;;;13.61;75.51;99791.56;4333284;33;35832;-77
2022/11/02 00:53:23;;;;;;;1.75;1.65;;;;;;;13.25;76.36;99787.69;4333829;33;34483;-70
2022/11/02 00:55:52;;;;;;;0.70;0.70;;;;;;;13.38;75.77;99791.91;4333768;33;33700;-70
2022/11/02 00:58:20;;;;;;;0.93;0.80;;;;;;;13.55;75.17;99802.09;4333463;33;34682;-78
2022/11/02 01:00:49;;;;;;;1.50;1.40;;;;;;;13.24;76.67;99796.44;4333503;33;36006;-76
2022/11/02 01:03:17;;;;;;;1.37;1.27;;;;;;;13.28;76.20;99798.13;4333447;33;34502;-70
2022/11/02 01:05:44;;;;;;;1.12;0.90;;;;;;;13.64;74.99;99795.84;4333426;33;33582;-70
2022/11/02 01:08:14;;;;;;;0.90;0.90;;;;;;;13.64;75.09;99801.09;4333660;33;33641;-74
2022/11/02 01:10:42;;;;;;;1.20;1.08;;;;;;;13.28;76.36;99798.13;4333310;33;34993;-70
2022/11/02 01:13:16;;;;;;;3.05;1.90;;;;;;;13.15;77.43;99791.34;4333290;33;34404;-70
2022/11/02 01:15:44;;;;;;;0.75;0.75;;;;;;;12.94;77.97;99790.75;4333398;33;33603;-78
2022/11/02 01:18:12;;;;;;;1.35;1.27;;;;;;;12.86;79.11;99792.59;4333329;33;33835;-70
2022/11/02 01:20:40;;;;;;;1.87;1.62;;;;;;;12.63;80.33;99785.91;4333304;33;34962;-70
2022/11/02 01:23:08;;;;;;;1.50;1.42;;;;;;;12.83;79.81;99785.66;4333210;33;35164;-70
2022/11/02 01:25:36;;;;;;;1.37;0.88;;;;;;;13.03;78.14;99789.75;4333141;33;34399;-71
2022/11/02 01:28:04;;;;;;;2.00;1.90;;;;;;;12.67;80.07;99779.78;4333178;33;34642;-74
2022/11/02 01:30:33;;;;;;;3.62;3.35;;;;;;;12.39;81.88;99779.22;4333048;33;35116;-70
2022/11/02 01:33:00;;;;;;;1.42;1.30;;;;;;;12.36;82.30;99781.00;4333753;33;34601;-70
2022/11/02 01:35:29;;;;;;;1.55;1.45;;;;;;;12.62;80.86;99781.56;4321716;33;34284;-71
2022/11/02 01:37:56;;;;;;;1.48;1.37;;;;;;;12.94;79.40;99785.53;4334958;33;34477;-70
2022/11/02 01:40:24;;;;;;;3.65;3.33;;;;;;;12.44;81.73;99779.16;4334861;33;35876;-78
2022/11/02 01:42:53;;;;;;;3.40;2.45;;;;;;;12.74;80.51;99785.78;4334860;33;35125;-70
2022/11/02 01:45:21;;;;;;;2.95;2.17;;;;;;;12.95;79.56;99792.47;4334931;33;33581;-70
2022/11/02 01:47:49;;;;;;;1.77;1.67;;;;;;;13.71;76.43;99787.03;4334838;33;33924;-70
2022/11/02 01:50:20;;;;;;;1.92;1.83;;;;;;;13.32;77.11;99786.75;4321423;33;34993;-71
2022/11/02 01:52:48;;;;;;;0.90;0.90;;;;;;;12.82;79.75;99785.69;4334719;33;35269;-70
2022/11/02 01:55:20;;;;;;;2.37;2.00;;;;;;;12.83;80.08;99782.16;4334825;33;33723;-70
2022/11/02 01:57:53;;;;;;;3.95;2.45;;;;;;;13.19;78.33;99779.97;4321660;33;34019;-70
2022/11/02 02:00:21;;;;;;;0.95;0.95;;;;;;;13.09;78.85;99777.47;4334905;33;35905;-70
2022/11/02 02:03:09;;;;;;;1.60;1.50;;;;;;;13.13;78.67;99774.81;4334733;33;34572;-70
2022/11/02 02:05:56;;;;;;;2.15;1.95;;;;;;;13.49;77.25;99776.03;4334770;33;33625;-78
2022/11/02 02:08:25;;;;;;;1.55;1.45;;;;;;;13.51;77.46;99781.25;4321563;33;34761;-78
2022/11/02 02:10:57;;;;;;;2.80;1.73;;;;;;;13.64;76.29;99774.91;4334575;33;34961;-71
2022/11/02 02:13:26;;;;;;;0.50;0.50;;;;;;;13.50;77.70;99772.56;4334647;33;34620;-70
2022/11/02 02:16:04;;;;;;;2.35;2.17;;;;;;;13.17;78.76;99768.66;4334949;33;33670;-79
2022/11/02 02:18:53;;;;;;;2.22;2.08;;;;;;;13.22;78.75;99766.84;4334674;33;33915;-73
2022/11/02 02:21:31;;;;;;;1.37;1.27;;;;;;;13.36;78.57;99764.91;4321555;33;34999;-70
2022/11/02 02:24:30;;;;;;;1.00;1.00;;;;;;;13.12;79.69;99773.94;4334597;33;34514;-70
2022/11/02 02:27:06;;;;;;;1.52;1.42;;;;;;;13.35;79.36;99767.56;4334663;33;34489;-70
2022/11/02 02:29:44;;;;;;;1.83;1.70;;;;;;;13.40;78.54;99768.34;4334543;33;34064;-73
2022/11/02 02:32:17;;;;;;;2.60;2.40;;;;;;;13.38;78.77;99768.38;4321520;33;35961;-70
2022/11/02 02:34:51;;;;;;;2.83;1.37;;;;;;;13.33;79.37;99771.94;4334524;33;34601;-78
2022/11/02 02:37:30;;;;;;;0.73;0.73;;;;;;;13.38;79.49;99778.84;4321658;33;33480;-70
2022/11/02 02:40:12;;;;;;;1.48;1.37;;;;;;;13.70;78.64;99792.31;4321425;33;33954;-70
2022/11/02 02:42:47;;;;;;;3.83;1.42;;;;;;;13.65;78.75;99789.75;4321545;33;35219;-70
2022/11/02 02:45:37;;;;;;;2.62;1.58;;;;;;;13.97;76.68;99801.44;4321084;33;34475;-70
2022/11/02 02:48:31;;;;;;;4.35;2.47;;;;;;;14.34;75.16;99806.00;4334457;33;33311;-71
2022/11/02 02:51:03;;;;;;;3.40;2.53;;;;;;;13.96;76.16;99803.19;4319534;33;34764;-70
2022/11/02 02:53:43;;;;;;;4.40;2.28;;;;;;;13.35;79.08;99812.00;4321386;33;35132;-70
2022/11/02 02:56:16;;;;;;;2.97;2.55;;;;;;;13.63;78.20;99805.47;4321752;33;34158;-78
2022/11/02 02:58:49;;;;;;;1.80;1.58;;;;;;;13.08;80.09;99814.97;4321368;33;32846;-72
2022/11/02 03:01:18;;;;;;;2.72;2.12;;;;;;;13.25;79.63;99821.69;4321645;33;33862;-71
2022/11/02 03:03:47;;;;;;;3.70;1.52;;;;;;;13.02;80.34;99822.91;4334255;33;35212;-70
2022/11/02 03:06:20;;;;;;;1.65;1.55;;;;;;;13.20;79.49;99826.13;4334328;33;35215;-79
2022/11/02 03:08:58;;;;;;;2.47;2.25;;;;;;;13.16;79.98;99829.69;4334538;33;34377;-70
2022/11/02 03:11:27;;;;;;;1.70;1.58;;;;;;;13.69;77.98;99828.06;4334383;33;34062;-70
2022/11/02 03:14:06;;;;;;;1.15;0.73;;;;;;;13.91;76.91;99831.22;4321132;33;34874;-70
2022/11/02 03:16:46;;;;;;;4.32;2.40;;;;;;;13.95;76.31;99826.78;4334318;33;34363;-70
2022/11/02 03:19:15;;;;;;;2.47;2.08;;;;;;;13.65;78.32;99831.63;4334534;33;33583;-70
2022/11/02 03:21:44;;;;;;;0.90;0.90;;;;;;;13.83;77.03;99833.94;4334283;33;34668;-70
2022/11/02 03:24:26;;;;;;;4.78;2.25;;;;;;;13.96;77.24;99839.84;4320975;33;35199;-70
2022/11/02 03:27:21;;;;;;;1.98;1.87;;;;;;;13.36;79.87;99843.38;4321067;33;34364;-71
2022/11/02 03:30:01;;;;;;;3.03;2.20;;;;;;;13.47;80.47;99840.63;4321112;33;33737;-70
2022/11/02 03:32:40;;;;;;;5.05;2.97;;;;;;;13.54;80.63;99842.25;4321310;33;34016;-70
2022/11/02 03:35:34;;;;;;;1.48;1.37;;;;;;;13.77;79.25;99844.50;4334403;33;34951;-70
2022/11/02 03:38:15;;;;;;;2.65;2.47;;;;;;;13.39;81.21;99847.69;4313754;33;34368;-69
2022/11/02 03:40:46;;;;;;;2.80;2.60;;;;;;;13.61;79.42;99828.19;4321040;33;34245;-70
2022/11/02 03:43:16;;;;;;;1.83;1.70;;;;;;;12.72;85.13;99831.94;4334167;33;34600;-71
2022/11/02 03:45:49;;;;;;;6.30;2.67;;;;;;;12.88;84.37;99836.13;4334325;33;34688;-71
2022/11/02 03:48:19;;;;;;;4.95;2.37;;;;;;;13.28;82.82;99824.28;4321002;33;33973;-70
2022/11/02 03:50:51;;;;;;;1.50;0.93;;;;;;;14.15;78.32;99826.44;4334003;33;33683;-70
2022/11/02 03:53:52;;;;;;;2.37;2.12;;;;;;;14.12;77.11;99829.97;4334371;33;33915;-70
2022/11/02 03:56:28;;;;;;;1.15;1.05;;;;;;;13.33;81.57;99843.41;4296786;33;35921;-70
2022/11/02 03:58:56;;;;;;;3.10;1.98;;;;;;;13.62;80.21;99836.88;4321240;33;34455;-70
2022/11/02 04:01:26;;;;;;;2.58;2.37;;;;;;;13.68;80.13;99839.44;4320891;33;33663;-71
2022/11/02 04:03:55;;;;;;;2.75;2.42;;;;;;;13.78;79.94;99851.50;4321218;33;33205;-70
2022/11/02 04:06:25;;;;;;;2.10;1.92;;;;;;;13.69;79.88;99849.00;4321128;33;35868;-77
2022/11/02 04:08:53;;;;;;;2.92;2.67;;;;;;;13.68;79.77;99844.66;4320813;33;34483;-70
2022/11/02 04:19:44;;;;;;;2.95;1.40;;;;;;;13.71;80.47;99868.19;4333905;33;34544;-78
2022/11/02 04:25:17;;;;;;;1.42;1.37;;;;;;;13.75;80.16;99861.16;4333942;33;34037;-71
2022/11/02 04:27:51;;;;;;;2.25;2.03;;;;;;;13.70;80.50;99866.44;4334085;33;36111;-70
2022/11/02 04:30:21;;;;;;;2.17;2.05;;;;;;;13.21;82.67;99875.78;4334053;33;35376;-70
2022/11/02 04:35:37;;;;;;;2.28;2.00;;;;;;;13.93;79.83;99870.47;4334033;33;33885;-78
2022/11/02 04:41:40;;;;;;;2.00;1.90;;;;;;;14.44;76.58;99873.06;4333910;33;34560;-70
2022/11/02 04:43:44;;;;;;;0.93;0.93;;;;;;;14.21;77.39;99876.97;4333633;33;33746;-77
2022/11/02 04:46:13;;;;;;;1.90;1.80;;;;;;;13.80;78.88;99869.75;4333868;33;33915;-75
2022/11/02 04:48:42;;;;;;;1.85;1.75;;;;;;;14.05;77.76;99867.62;4333869;33;35767;-70
2022/11/02 04:51:10;;;;;;;3.47;3.12;;;;;;;13.92;78.48;99876.56;4333398;33;35262;-70
2022/11/02 04:53:38;;;;;;;0.82;0.82;;;;;;;13.78;79.08;99872.44;4333787;33;34436;-70
2022/11/02 04:56:07;;;;;;;2.17;1.98;;;;;;;14.31;76.70;99882.03;4333879;33;33829;-70
2022/11/02 04:58:36;;;;;;;1.00;1.00;;;;;;;13.71;79.03;99881.25;4333629;33;36015;-71
2022/11/02 05:01:08;;;;;;;1.50;1.40;;;;;;;13.72;79.12;99882.13;4333750;33;35217;-78
2022/11/02 05:03:37;;;;;;;1.52;1.42;;;;;;;13.71;79.26;99877.75;4320715;33;33540;-70
2022/11/02 05:06:06;;;;;;;1.00;0.90;;;;;;;14.03;78.63;99882.53;4333724;33;34921;-77
2022/11/02 05:08:35;;;;;;;1.75;1.25;;;;;;;13.68;80.20;99880.41;4333479;33;35159;-73
2022/11/02 05:11:04;;;;;;;8.80;1.48;;;;;;;13.92;78.73;99873.94;4333454;33;34721;-73
2022/11/02 05:13:32;;;;;;;0.37;0.37;;;;;;;14.19;77.66;99885.75;4333743;33;33592;-70
2022/11/02 05:16:01;;;;;;;1.90;1.80;;;;;;;13.98;78.39;99884.34;4320224;33;34061;-70
2022/11/02 05:18:29;;;;;;;1.80;1.70;;;;;;;13.59;80.87;99894.53;4333522;33;35781;-70
2022/11/02 05:20:59;;;;;;;0.77;0.77;;;;;;;13.28;81.87;99889.66;4333490;33;34486;-70
2022/11/02 05:23:28;;;;;;;0.82;0.82;;;;;;;13.82;79.97;99892.44;4333622;33;34348;-70
2022/11/02 05:26:03;;;;;;;1.50;1.40;;;;;;;13.97;79.53;99887.84;4333427;33;34077;-71
2022/11/02 05:28:32;;;;;;;1.42;1.27;;;;;;;14.23;77.75;99888.28;4333387;33;35825;-70
2022/11/02 05:31:03;;;;;;;1.67;1.48;;;;;;;14.62;76.16;99900.72;4333142;33;34484;-70
2022/11/02 05:33:32;;;;;;;1.75;1.55;;;;;;;13.85;79.97;99894.13;4333170;33;33556;-70
2022/11/02 05:36:02;;;;;;;3.65;2.83;;;;;;;14.11;78.20;99896.34;4333434;33;34099;-70
2022/11/02 05:38:31;;;;;;;0.88;0.85;;;;;;;14.30;77.56;99880.31;4333096;33;36178;-70
2022/11/02 05:40:59;;;;;;;1.50;1.40;;;;;;;13.87;80.74;99884.50;4333303;33;34423;-70
2022/11/02 05:43:27;;;;;;;3.83;2.83;;;;;;;14.06;79.38;99892.91;4333003;33;33462;-70
2022/11/02 05:46:01;;;;;;;1.25;1.17;;;;;;;13.79;81.11;99886.37;4332863;33;33958;-70
2022/11/02 05:48:32;;;;;;;3.45;2.80;;;;;;;13.86;80.76;99879.28;4319775;33;35151;-70
2022/11/02 05:51:02;;;;;;;4.37;2.55;;;;;;;14.05;79.84;99883.34;4319475;33;34545;-69
2022/11/02 05:53:32;;;;;;;2.10;2.00;;;;;;;14.81;76.43;99877.66;4319789;33;34538;-70
2022/11/02 05:56:02;;;;;;;4.37;1.87;;;;;;;14.30;78.47;99883.78;4332756;33;34006;-70
2022/11/02 05:58:30;;;;;;;1.48;1.25;;;;;;;14.28;78.96;99879.50;4332751;33;34906;-70
2022/11/02 06:01:03;;;;;;;1.55;1.45;;;;;;;14.49;78.38;99876.47;4332627;33;35344;-70
2022/11/02 06:03:31;;;;;;;2.30;1.85;;;;;;;14.30;79.07;99880.31;4319572;33;34479;-70
2022/11/02 06:06:04;;;;;;;1.25;1.23;;;;;;;14.30;79.57;99877.69;4319603;33;33782;-70
2022/11/02 06:08:34;;;;;;;3.50;3.25;;;;;;;14.12;79.71;99876.25;4319500;33;35014;-70
2022/11/02 06:11:12;;;;;;;1.42;1.33;;;;;;;14.62;77.85;99876.28;4319250;33;35407;-70
2022/11/02 06:13:41;;;;;;;2.20;2.10;;;;;;;14.24;79.28;99873.41;4332693;33;33712;-70
2022/11/02 06:16:11;;;;;;;2.05;1.95;;;;;;;13.83;81.20;99881.03;4332329;33;34714;-78
2022/11/02 06:18:38;;;;;;;1.83;1.73;;;;;;;13.44;84.43;99892.97;4332607;33;36071;-70
2022/11/02 06:21:07;;;;;;;1.58;1.48;;;;;;;13.99;82.04;99896.53;4334663;33;34471;-70
2022/11/02 06:23:35;;;;;;;1.02;1.00;;;;;;;14.14;81.49;99896.28;4321335;33;33666;-75
2022/11/02 06:26:03;;;;;;;2.22;2.03;;;;;;;14.55;80.15;99902.56;4334538;33;33842;-70
2022/11/02 06:28:32;;;;;;;1.08;1.05;;;;;;;14.34;81.02;99903.81;4334489;33;35130;-71
2022/11/02 06:31:00;;;;;;;1.80;1.45;;;;;;;15.20;77.04;99911.84;4334765;33;34609;-70
2022/11/02 06:33:28;;;;;;;1.08;0.85;;;;;;;14.02;81.83;99907.81;4334556;33;33248;-70
2022/11/02 06:35:58;;;;;;;5.25;2.53;;;;;;;14.50;80.76;99914.88;4334538;33;34756;-70
2022/11/02 06:38:26;;;;;;;2.15;1.95;;;;;;;14.57;79.83;99921.75;4334399;33;35018;-71
2022/11/02 06:40:56;;;;;;;2.58;2.12;;;;;;;14.46;80.73;99926.31;4334491;33;34055;-78
2022/11/02 06:43:25;;;;;;;1.23;1.17;;;;;;;14.48;81.02;99931.53;4334517;33;34500;-79
2022/11/02 06:45:54;;;;;;;2.50;2.30;;;;;;;14.57;80.92;99936.59;4334447;33;33980;-70
2022/11/02 06:48:23;;;;;;;2.58;2.37;;;;;;;14.62;81.08;99934.81;4321340;33;35127;-70
2022/11/02 06:50:57;;;;;;;1.30;1.20;;;;;;;14.72;80.95;99938.16;4321668;33;34648;-70
2022/11/02 06:53:25;;;;;;;0.95;0.95;;;;;;;14.87;81.16;99940.47;4334470;33;33752;-77
2022/11/02 06:55:54;;;;;;;3.30;2.65;;;;;;;15.00;79.93;99935.88;4334359;33;33832;-70
2022/11/02 06:58:23;;;;;;;3.20;2.78;;;;;;;15.33;78.91;99929.06;4334420;33;36010;-70
2022/11/02 07:00:59;;;;;;;2.53;2.35;;;;;;;15.16;78.79;99941.69;4334272;33;34339;-70
2022/11/02 07:03:27;;;;;;;;;;;;;;;14.80;79.73;99933.59;4334818;33;33846;-71
2022/11/02 07:05:55;;;;;;;1.02;1.02;;;;;;;15.08;78.79;99927.84;4334391;33;35042;-70
2022/11/02 07:08:26;;;;;;;1.10;0.90;;;;;;;14.97;78.96;99928.06;4334285;33;34979;-78
2022/11/02 07:10:54;;;;;;;2.80;2.50;;;;;;;14.66;80.21;99933.00;4334307;33;34422;-78
2022/11/02 07:13:22;;;;;;;3.28;2.95;;;;;;;14.92;78.65;99933.37;4334421;33;33698;-70
2022/11/02 07:15:52;;;;;;;2.87;2.15;;;;;;;15.22;77.37;99936.28;4334301;33;33941;-70
2022/11/02 07:18:21;;;;;;;3.00;2.08;;;;;;;15.02;78.35;99938.44;4334150;33;34927;-70
2022/11/02 07:20:49;;;;;;;1.85;1.70;;;;;;;15.18;77.52;99937.25;4334265;33;34490;-70
2022/11/02 07:23:17;;;;;;;2.40;1.35;;;;;;;15.07;77.69;99942.72;4334193;33;34389;-70
2022/11/02 07:25:45;;;;;;;2.92;2.72;;;;;;;15.61;75.78;99944.22;4334527;33;34791;-70
2022/11/02 07:28:13;;;;;;;2.40;1.65;;;;;;;15.65;75.21;99948.53;4334184;33;34843;-71
2022/11/02 07:30:41;;;;;;;1.65;1.50;;;;;;;15.70;74.95;99944.00;4333006;33;34498;-70
2022/11/02 07:33:10;;;;;;;1.90;1.80;;;;;;;14.93;79.03;99944.72;4334130;33;34611;-78
2022/11/02 07:35:37;;;;;;;2.42;2.03;;;;;;;15.24;77.04;99949.38;4334165;33;34727;-70
2022/11/02 07:38:06;;;;;;;1.37;1.27;;;;;;;15.34;77.11;99943.91;4334191;33;35171;-76
2022/11/02 07:40:35;;;;;;;2.15;1.73;;;;;;;15.37;77.79;99950.88;4334060;33;34661;-73
2022/11/02 07:43:03;;;;;;;4.62;4.22;;;;;;;15.54;77.35;99945.25;4334127;33;33551;-70
2022/11/02 07:45:34;;;;;;;1.77;1.67;;;;;;;16.19;74.72;99947.31;4334366;33;33894;-79
2022/11/02 07:48:02;;;;;;;1.00;1.00;;;;;;;15.78;76.07;99956.16;4320999;33;34580;-70
2022/11/02 07:50:30;;;;;;;1.83;1.73;;;;;;;15.59;77.23;99950.41;4333935;33;35326;-70
2022/11/02 07:52:59;;;;;;;1.27;0.88;;;;;;;15.90;75.51;99961.13;4333986;33;33547;-71
2022/11/02 07:55:29;;;;;;;2.30;2.00;;;;;;;16.15;74.18;99956.19;4334067;33;33832;-71
2022/11/02 07:57:59;;;;;;;2.75;2.55;;;;;;;15.93;75.36;99947.94;4333927;33;34229;-71
2022/11/02 08:00:30;;;;;;;5.00;3.42;;;;;;;16.08;75.09;99944.94;4320893;33;34853;-70
2022/11/02 08:02:59;;;;;;;2.67;2.47;;;;;;;15.90;75.39;99945.34;4334013;33;33778;-70
2022/11/02 08:05:28;;;;;;;1.17;1.12;;;;;;;15.61;77.33;99944.22;4333994;33;33915;-70
2022/11/02 08:07:57;;;;;;;2.17;1.98;;;;;;;16.17;75.55;99943.00;4320711;33;35980;-71
2022/11/02 08:10:26;;;;;;;1.48;1.37;;;;;;;15.84;76.89;99946.38;4334101;33;34647;-79
2022/11/02 08:12:55;;;;;;;1.85;1.75;;;;;;;15.70;77.66;99948.41;4334112;33;33840;-78
2022/11/02 08:15:23;;;;;;;1.73;1.40;;;;;;;16.15;74.80;99952.66;4320715;33;33977;-71
2022/11/02 08:18:00;;;;;;;3.85;3.55;;;;;;;16.03;74.98;99946.81;4308829;33;34624;-70
2022/11/02 08:20:30;;;;;;;4.47;2.35;;;;;;;15.78;77.27;99943.91;4333866;33;34405;-71
2022/11/02 08:22:58;;;;;;;2.33;2.20;;;;;;;16.02;76.07;99945.06;4333868;33;33674;-70
2022/11/02 08:25:26;;;;;;;2.55;2.35;;;;;;;16.23;74.89;99938.44;4320710;33;33872;-72
2022/11/02 08:27:58;;;;;;;3.08;1.77;;;;;;;16.30;75.25;99933.91;4333794;33;35167;-72
2022/11/02 08:30:28;;;;;;;1.52;1.42;;;;;;;16.06;76.99;99946.75;4333798;33;34502;-71
2022/11/02 08:33:05;;;;;;;2.08;1.85;;;;;;;16.29;76.31;99947.97;4320531;33;34217;-78
2022/11/02 08:35:33;;;;;;;5.40;4.90;;;;;;;16.30;75.27;99952.31;4333867;33;33931;-71
2022/11/02 08:38:02;;;;;;;1.17;1.12;;;;;;;16.21;76.04;99949.91;4320738;33;35049;-70
2022/11/02 08:40:31;;;;;;;3.55;3.22;;;;;;;16.29;75.01;99950.59;4333779;33;34187;-71
2022/11/02 08:43:04;;;;;;;4.30;2.95;;;;;;;16.35;74.83;99953.06;4333216;33;34594;-71
2022/11/02 08:45:33;;;;;;;2.95;1.90;;;;;;;16.40;74.06;99943.31;4320618;33;34808;-70
2022/11/02 08:48:22;;;;;;;3.92;1.98;;;;;;;16.92;72.47;99937.63;4322807;33;35080;-70
2022/11/02 08:50:50;;;;;;;3.85;2.70;;;;;;;16.80;73.55;99937.03;4333278;33;34399;-71
2022/11/02 08:53:18;;;;;;;2.55;2.10;;;;;;;16.59;72.94;99940.19;4333544;33;33628;-71
2022/11/02 08:55:46;;;;;;;2.72;1.75;;;;;;;16.55;73.41;99935.91;4333572;33;34685;-71
2022/11/02 08:58:14;;;;;;;3.30;1.50;;;;;;;16.62;73.88;99940.13;4333599;33;35006;-78
2022/11/02 09:00:42;;;;;;;2.72;2.53;;;;;;;16.66;73.54;99931.28;4333495;33;34467;-70
2022/11/02 09:03:12;;;;;;;1.95;1.83;;;;;;;17.05;72.64;99934.59;4333548;33;33709;-71
2022/11/02 09:05:45;;;;;;;2.15;1.87;;;;;;;17.11;73.07;99935.34;4333532;33;33928;-71
2022/11/02 09:08:18;;;;;;;4.75;2.90;;;;;;;17.55;72.00;99934.03;4320297;33;34894;-71
2022/11/02 09:10:50;;;;;;;0.90;0.90;;;;;;;17.68;71.17;99929.25;4320917;33;35134;-72
2022/11/02 09:13:23;;;;;;;3.45;2.47;;;;;;;18.01;70.70;99931.81;4333334;33;33520;-71
2022/11/02 09:15:54;;;;;;;1.23;1.12;;;;;;;18.07;69.86;99933.37;4333356;33;33870;-71
2022/11/02 09:18:23;;;;;;;5.15;4.65;;;;;;;17.84;70.01;99932.28;4333389;33;35172;-70
2022/11/02 09:20:51;;;;;;;2.03;1.90;;;;;;;17.96;71.05;99925.81;4333345;33;34458;-71
2022/11/02 09:23:20;;;;;;;2.28;1.75;;;;;;;18.37;67.89;99929.75;4333244;33;34626;-71
2022/11/02 09:25:49;;;;;;;2.22;2.10;;;;;;;18.23;68.16;99925.81;4333481;33;33951;-70
2022/11/02 09:28:17;;;;;;;2.50;2.30;;;;;;;18.42;69.34;99926.09;4333161;33;34994;-71
2022/11/02 09:30:45;;;;;;;1.55;1.45;;;;;;;18.87;68.28;99922.81;4333176;33;35218;-78
2022/11/02 09:33:14;;;;;;;2.25;1.50;;;;;;;19.34;66.68;99928.12;4333092;33;34420;-72
2022/11/02 09:35:46;;;;;;;3.47;3.15;;;;;;;19.54;64.21;99919.47;4333073;33;33784;-71
2022/11/02 09:38:17;;;;;;;3.55;2.15;;;;;;;19.81;64.02;99927.25;4333381;33;35057;-78
2022/11/02 09:41:00;;;;;;;4.07;2.37;;;;;;;20.87;61.53;99920.22;4333213;33;35295;-71
2022/11/02 09:43:38;;;;;;;4.22;2.17;;;;;;;21.38;58.35;99925.91;4319854;33;34462;-75
2022/11/02 09:46:23;;;;;;;2.05;1.37;;;;;;;20.97;59.51;99921.53;4332979;33;34798;-79
2022/11/02 09:48:55;;;;;;;1.90;1.80;;;;;;;20.78;59.34;99926.78;4319825;33;35180;-71
2022/11/02 09:51:50;;;;;;;3.62;2.15;;;;;;;20.62;58.95;99921.28;4332613;33;35128;-79
2022/11/02 09:54:19;;;;;;;2.67;2.47;;;;;;;19.89;61.75;99927.81;4333541;33;34391;-78
2022/11/02 09:56:48;;;;;;;2.03;1.87;;;;;;;19.74;61.59;99921.34;4334759;33;34584;-72
2022/11/02 09:59:22;;;;;;;4.35;3.55;;;;;;;19.54;63.20;99922.09;4334782;33;35974;-79
2022/11/02 10:02:02;;;;;;;2.12;2.03;;;;;;;20.08;61.38;99920.00;4321531;33;35354;-71
2022/11/02 10:04:46;;;;;;;2.50;2.30;;;;;;;19.97;61.48;99923.06;4321665;33;33663;-71
2022/11/02 10:07:20;;;;;;;2.10;1.65;;;;;;;20.98;59.75;99923.28;4321684;33;33919;-79
2022/11/02 10:10:00;;;;;;;1.85;1.75;;;;;;;22.31;55.48;99914.44;4334828;33;35043;-71
2022/11/02 10:12:59;;;;;;;5.57;3.35;;;;;;;23.61;53.21;99917.37;4321567;33;34674;-71
2022/11/02 10:15:44;;;;;;;3.62;3.08;;;;;;;24.72;50.00;99915.47;4334732;33;33680;-71
2022/11/02 10:18:16;;;;;;;12.00;3.60;;;;;;;25.28;47.38;99918.31;4321447;33;34764;-81
2022/11/02 10:20:46;;;;;;;5.53;3.50;;;;;;;25.86;47.28;99924.41;4334568;33;35182;-80
2022/11/02 10:23:21;;;;;;;3.70;2.60;;;;;;;26.39;45.19;99914.69;4334637;33;34433;-79
2022/11/02 10:25:50;;;;;;;4.03;2.37;;;;;;;25.34;46.58;99908.13;4334701;33;34582;-71
2022/11/02 10:28:23;;;;;;;3.90;3.47;;;;;;;25.07;47.47;99915.97;4334565;33;34034;-71
2022/11/02 10:30:53;;;;;;;2.92;2.40;;;;;;;24.63;48.11;99911.56;4321595;33;35024;-75
2022/11/02 10:33:26;;;;;;;2.60;2.22;;;;;;;24.89;47.95;99911.81;4334438;33;34376;-72
2022/11/02 10:36:18;;;;;;;3.90;3.40;;;;;;;24.45;49.43;99909.97;4321549;33;33648;-81
2022/11/02 10:38:54;;;;;;;2.83;1.77;;;;;;;25.08;47.36;99912.38;4334461;33;34748;-79
2022/11/02 10:41:35;;;;;;;2.90;2.15;;;;;;;24.34;50.33;99916.78;4334594;33;35125;-79
2022/11/02 10:44:23;;;;;;;1.98;1.65;;;;;;;24.95;47.44;99911.41;4334543;33;34399;-72
2022/11/02 10:47:10;;;;;;;6.20;2.72;;;;;;;23.69;51.53;99908.09;4334473;33;33795;-79
2022/11/02 10:50:03;;;;;;;1.87;1.73;;;;;;;24.16;50.24;99913.41;4334491;33;33882;-71
2022/11/02 10:52:42;;;;;;;2.20;2.03;;;;;;;23.81;50.68;99910.09;4322038;33;35017;-72
2022/11/02 10:55:56;;;;;;;2.65;1.98;;;;;;;24.30;51.00;99904.63;4334505;33;34408;-71
2022/11/02 10:58:27;;;;;;;3.20;2.92;;;;;;;24.23;50.24;99903.25;4288627;33;33649;-80
2022/11/02 11:01:11;;;;;;;3.10;2.67;;;;;;;24.85;48.43;99904.91;4326603;33;33130;-79
2022/11/02 11:04:01;;;;;;;1.87;1.70;;;;;;;24.27;50.54;99904.78;4321243;33;35037;-71
2022/11/02 11:06:40;;;;;;;1.33;1.25;;;;;;;23.86;49.96;99905.38;4334192;33;34484;-72
2022/11/02 11:09:20;;;;;;;1.67;1.42;;;;;;;23.52;49.61;99898.38;4334431;33;33671;-71
2022/11/02 11:11:59;;;;;;;1.75;1.65;;;;;;;23.68;50.29;99901.91;4334354;33;33813;-71
2022/11/02 11:14:29;;;;;;;1.70;1.60;;;;;;;22.65;52.69;99899.47;4321255;33;35007;-73
2022/11/02 11:17:23;;;;;;;2.17;1.98;;;;;;;21.84;55.45;99899.06;4323142;33;35247;-78
2022/11/02 11:20:37;;;;;;;1.25;1.15;;;;;;;21.73;56.61;99903.06;4323541;33;33667;-79
2022/11/02 11:23:09;;;;;;;2.35;2.20;;;;;;;21.83;57.02;99894.66;4321075;33;34018;-79
2022/11/02 11:25:39;;;;;;;1.25;1.17;;;;;;;22.17;54.84;99903.66;4334285;33;35023;-80
2022/11/02 11:28:22;;;;;;;5.75;1.52;;;;;;;22.05;55.56;99905.94;4321275;33;34493;-80
2022/11/02 11:31:04;;;;;;;4.10;2.05;;;;;;;22.49;54.48;99900.25;4321104;33;33889;-71
2022/11/02 11:33:46;;;;;;;2.00;1.90;;;;;;;21.83;55.85;99907.91;4334183;33;33829;-71
2022/11/02 11:36:23;;;;;;;3.03;2.53;;;;;;;21.72;56.62;99909.28;4334223;33;35746;-78
2022/11/02 11:38:56;;;;;;;2.22;2.03;;;;;;;21.36;58.23;99912.72;4334432;33;34468;-79
2022/11/02 11:41:24;;;;;;;4.78;2.55;;;;;;;20.95;59.15;99910.16;4321070;33;34402;-78
2022/11/02 11:43:52;;;;;;;1.62;1.35;;;;;;;21.08;59.09;99909.63;4334101;33;34028;-80
2022/11/02 11:46:21;;;;;;;3.83;3.47;;;;;;;21.06;58.59;99911.47;4320896;33;35091;-78
2022/11/02 11:48:54;;;;;;;1.60;1.50;;;;;;;21.66;57.33;99903.44;4320948;33;35155;-72
2022/11/02 11:51:33;;;;;;;2.67;2.30;;;;;;;21.33;58.90;99906.69;4333904;33;33666;-72
2022/11/02 11:54:25;;;;;;;2.33;2.12;;;;;;;21.83;56.74;99915.88;4320878;33;34302;-71
2022/11/02 11:57:15;;;;;;;1.30;1.10;;;;;;;22.42;55.73;99904.16;4320929;33;34954;-79
2022/11/02 11:59:47;;;;;;;1.55;1.48;;;;;;;22.11;58.10;99895.06;4333826;33;34977;-79
2022/11/02 12:02:23;;;;;;;1.83;1.73;;;;;;;22.55;56.55;99892.91;4308928;33;34664;-80
2022/11/02 12:05:05;;;;;;;1.50;1.30;;;;;;;22.60;55.52;99885.56;4333973;33;34783;-71
2022/11/02 12:07:40;;;;;;;2.25;2.03;;;;;;;22.63;53.75;99874.78;4320847;33;35880;-71
2022/11/02 12:10:18;;;;;;;1.48;1.37;;;;;;;22.85;52.66;99871.84;4333980;33;34625;-71
2022/11/02 12:13:04;;;;;;;1.95;1.83;;;;;;;22.02;56.90;99866.31;4333900;33;33619;-80
2022/11/02 12:15:49;;;;;;;1.48;1.37;;;;;;;22.22;56.04;99869.75;4320943;33;33957;-71
2022/11/02 12:18:17;;;;;;;1.45;1.37;;;;;;;22.67;54.70;99871.03;4319933;33;35574;-80